Time;durP1;ratioP1;P1;durP2;ratioP2;P2;SDS_P1;SDS_P2;PMS_P1;PMS_P2;Temp;Humidity;BMP_temperature;BMP_pressure;BME280_temperature;BME280_humidity;BME280_pressure;Samples;Min_cycle;Max_cycle;Signal;HPM_P1;HPM_P2
2022/06/19 00:01:31;;;;;;;11.18;2.28;;;15.90;99.90;;;;;;5054406;28;20041;-78
2022/06/19 00:04:02;;;;;;;11.38;1.88;;;15.90;99.90;;;;;;5047392;28;20111;-77
2022/06/19 00:06:28;;;;;;;8.27;1.90;;;15.80;99.90;;;;;;5041838;28;20044;-78
2022/06/19 00:08:53;;;;;;;6.95;1.52;;;15.70;99.90;;;;;;5052262;28;20512;-77
2022/06/19 00:11:21;;;;;;;8.35;1.40;;;15.80;99.90;;;;;;5050524;28;20041;-77
2022/06/19 00:13:47;;;;;;;8.13;1.35;;;15.70;99.90;;;;;;5043880;28;20033;-77
2022/06/19 00:16:14;;;;;;;6.25;1.23;;;15.70;99.90;;;;;;5053650;28;20109;-77
2022/06/19 00:18:40;;;;;;;8.65;1.77;;;15.70;99.90;;;;;;5053225;28;20430;-78
2022/06/19 00:21:07;;;;;;;5.78;1.33;;;15.70;99.90;;;;;;5053734;28;20036;-77
2022/06/19 00:23:33;;;;;;;5.65;1.48;;;15.80;99.90;;;;;;5053175;28;20262;-78
2022/06/19 00:25:59;;;;;;;7.05;1.75;;;15.80;99.90;;;;;;5051519;28;20440;-78
2022/06/19 00:28:25;;;;;;;5.93;1.50;;;15.80;99.90;;;;;;5053238;28;20072;-76
2022/06/19 00:30:50;;;;;;;8.80;1.52;;;15.80;99.90;;;;;;5053300;28;20032;-77
2022/06/19 00:33:16;;;;;;;7.53;1.73;;;15.80;99.90;;;;;;5053187;28;20087;-76
2022/06/19 00:35:41;;;;;;;8.10;1.50;;;15.80;99.90;;;;;;5051300;28;20037;-77
2022/06/19 00:38:08;;;;;;;12.30;1.77;;;15.80;99.90;;;;;;5053880;28;20049;-78
2022/06/19 00:40:34;;;;;;;7.43;1.58;;;15.80;99.90;;;;;;5051316;28;20040;-77
2022/06/19 00:42:59;;;;;;;7.50;1.55;;;15.70;99.90;;;;;;5053919;28;20091;-77
2022/06/19 00:45:29;;;;;;;7.07;1.70;;;15.80;99.90;;;;;;5051402;28;20072;-78
2022/06/19 00:47:55;;;;;;;8.52;1.58;;;15.80;99.90;;;;;;5051215;28;20116;-77
2022/06/19 00:50:26;;;;;;;10.20;1.77;;;15.80;99.90;;;;;;5053960;28;20076;-78
2022/06/19 00:52:52;;;;;;;7.38;1.42;;;15.80;99.90;;;;;;5052407;28;21614;-77
2022/06/19 00:55:24;;;;;;;9.30;2.25;;;15.90;99.90;;;;;;5049295;28;20061;-77
2022/06/19 00:58:02;;;;;;;8.65;1.90;;;15.90;99.90;;;;;;5050124;28;20068;-78
2022/06/19 01:00:29;;;;;;;9.55;1.80;;;16.00;99.90;;;;;;5053702;28;20044;-78
2022/06/19 01:02:58;;;;;;;9.20;1.70;;;15.90;99.90;;;;;;5051083;28;20033;-78
2022/06/19 01:05:25;;;;;;;10.63;2.05;;;15.90;99.90;;;;;;5051574;28;20055;-78
2022/06/19 01:07:51;;;;;;;10.95;1.85;;;15.80;99.90;;;;;;5052344;28;20037;-78
2022/06/19 01:10:17;;;;;;;10.23;2.20;;;15.90;99.90;;;;;;5051911;28;20041;-78
2022/06/19 01:12:46;;;;;;;11.70;2.10;;;15.70;99.90;;;;;;5052054;28;20037;-78
2022/06/19 01:15:13;;;;;;;12.35;2.00;;;15.70;99.90;;;;;;5051550;28;20043;-78
2022/06/19 01:17:39;;;;;;;9.18;2.05;;;15.70;99.90;;;;;;5052788;28;20037;-79
2022/06/19 01:20:09;;;;;;;15.18;2.20;;;15.50;99.90;;;;;;5052898;28;20111;-79
2022/06/19 01:23:02;;;;;;;12.57;2.38;;;15.30;99.90;;;;;;5052171;28;20055;-78
2022/06/19 01:25:33;;;;;;;15.57;1.92;;;15.20;99.90;;;;;;5048603;28;20045;-78
2022/06/19 01:30:53;;;;;;;10.52;2.05;;;15.20;99.90;;;;;;5049387;28;20037;-79
2022/06/19 01:33:25;;;;;;;11.57;2.60;;;15.00;99.90;;;;;;5051409;28;20132;-79
2022/06/19 01:35:53;;;;;;;14.27;2.15;;;15.00;99.90;;;;;;5048055;28;20735;-78
2022/06/19 01:38:22;;;;;;;18.88;2.55;;;15.10;99.90;;;;;;5052295;28;20035;-78
2022/06/19 01:40:52;;;;;;;11.82;2.55;;;15.20;99.90;;;;;;5048095;28;20036;-78
2022/06/19 01:43:19;;;;;;;17.80;3.22;;;15.20;99.90;;;;;;5053523;28;20033;-80
2022/06/19 01:45:52;;;;;;;13.30;2.10;;;15.20;99.90;;;;;;5048750;28;20124;-78
2022/06/19 01:48:18;;;;;;;13.90;2.20;;;15.20;99.90;;;;;;5053307;28;20049;-78
2022/06/19 01:50:44;;;;;;;15.18;2.50;;;15.20;99.90;;;;;;5049136;28;20162;-77
2022/06/19 01:53:29;;;;;;;15.10;2.20;;;15.30;99.90;;;;;;5052644;28;20505;-78
2022/06/19 01:55:55;;;;;;;12.27;2.10;;;15.40;99.90;;;;;;5048875;28;20062;-78
2022/06/19 01:58:24;;;;;;;10.82;1.90;;;15.40;99.90;;;;;;5049578;28;20071;-78
2022/06/19 02:00:50;;;;;;;15.30;2.70;;;15.40;99.90;;;;;;5051737;28;20441;-78
2022/06/19 02:03:32;;;;;;;18.00;2.75;;;15.30;99.90;;;;;;5051933;28;20394;-78
2022/06/19 02:05:58;;;;;;;12.02;2.60;;;15.30;99.90;;;;;;5044330;28;20090;-77
2022/06/19 02:08:26;;;;;;;12.18;2.00;;;15.30;99.90;;;;;;5049663;28;20239;-78
2022/06/19 02:10:52;;;;;;;11.68;2.30;;;15.30;99.90;;;;;;5051404;28;20107;-79
2022/06/19 02:13:20;;;;;;;15.43;2.85;;;15.30;99.90;;;;;;5050929;28;20036;-79
2022/06/19 02:15:47;;;;;;;13.10;2.35;;;15.30;99.90;;;;;;5048876;28;20038;-79
2022/06/19 02:18:20;;;;;;;19.05;2.80;;;15.40;99.90;;;;;;5050687;28;20053;-77
2022/06/19 02:20:45;;;;;;;16.63;2.72;;;15.30;99.90;;;;;;5045062;28;20045;-78
2022/06/19 02:23:11;;;;;;;17.98;2.85;;;15.30;99.90;;;;;;5051996;28;20036;-79
2022/06/19 02:25:41;;;;;;;13.15;2.80;;;15.30;99.90;;;;;;5050113;28;20048;-78
2022/06/19 02:28:08;;;;;;;12.05;1.92;;;15.20;99.90;;;;;;5051368;28;20071;-77
2022/06/19 02:30:34;;;;;;;16.95;2.47;;;15.20;99.90;;;;;;5051095;28;20055;-79
2022/06/19 02:33:00;;;;;;;11.75;2.47;;;15.10;99.90;;;;;;5051506;28;20032;-80
2022/06/19 02:35:26;;;;;;;13.48;2.38;;;15.10;99.90;;;;;;5051539;28;20040;-78
2022/06/19 02:37:54;;;;;;;10.75;2.65;;;15.10;99.90;;;;;;5052736;28;20029;-78
2022/06/19 02:40:48;;;;;;;14.10;2.38;;;15.10;99.90;;;;;;5051391;28;20080;-79
2022/06/19 02:43:25;;;;;;;14.93;2.57;;;15.10;99.90;;;;;;5047315;28;20081;-78
2022/06/19 02:45:51;;;;;;;17.05;2.50;;;15.00;99.90;;;;;;5050145;28;20295;-78
2022/06/19 02:48:28;;;;;;;11.82;2.20;;;15.00;99.90;;;;;;5050891;28;20112;-79
2022/06/19 02:50:57;;;;;;;14.30;2.10;;;14.90;99.90;;;;;;5044775;28;20048;-78
2022/06/19 02:53:23;;;;;;;12.77;2.38;;;14.90;99.90;;;;;;5049840;28;20096;-78
2022/06/19 02:55:49;;;;;;;11.95;2.30;;;15.00;99.90;;;;;;5049805;28;20029;-78
2022/06/19 02:58:16;;;;;;;12.00;2.20;;;15.00;99.90;;;;;;5051969;28;20029;-79
2022/06/19 03:00:42;;;;;;;12.85;2.45;;;14.90;99.90;;;;;;5051418;28;20056;-79
2022/06/19 03:03:16;;;;;;;18.23;2.70;;;14.90;99.90;;;;;;5051043;28;20150;-78
2022/06/19 03:05:42;;;;;;;16.55;2.30;;;14.90;99.90;;;;;;5050397;28;20083;-78
2022/06/19 03:08:08;;;;;;;12.20;2.20;;;15.00;99.90;;;;;;5048245;28;20036;-79
2022/06/19 03:10:34;;;;;;;13.25;2.10;;;15.00;99.90;;;;;;5049371;28;20041;-78
2022/06/19 03:12:59;;;;;;;15.25;2.42;;;15.10;99.90;;;;;;5050827;28;20486;-79
2022/06/19 03:15:25;;;;;;;13.02;2.10;;;15.00;99.90;;;;;;5049331;28;20033;-79
2022/06/19 03:17:51;;;;;;;14.48;2.40;;;15.00;99.90;;;;;;5050085;28;20044;-78
2022/06/19 03:20:20;;;;;;;12.40;2.00;;;15.00;99.90;;;;;;5050794;28;20368;-78
2022/06/19 03:22:45;;;;;;;14.45;2.10;;;15.00;99.90;;;;;;5045133;28;20084;-78
2022/06/19 03:25:11;;;;;;;14.15;2.75;;;15.00;99.90;;;;;;5049877;28;20064;-78
2022/06/19 03:27:37;;;;;;;11.65;2.25;;;15.10;99.90;;;;;;5049283;28;20094;-78
2022/06/19 03:30:03;;;;;;;10.50;2.00;;;15.10;99.90;;;;;;5050775;28;20525;-78
2022/06/19 03:32:28;;;;;;;11.18;2.15;;;15.10;99.90;;;;;;5048605;28;20041;-78
2022/06/19 03:34:55;;;;;;;11.77;2.20;;;15.10;99.90;;;;;;5050573;28;20060;-77
2022/06/19 03:37:21;;;;;;;11.13;2.13;;;15.10;99.90;;;;;;5049474;28;20065;-77
2022/06/19 03:39:48;;;;;;;14.02;2.35;;;15.10;99.90;;;;;;5046510;28;20406;-76
2022/06/19 03:42:15;;;;;;;16.98;2.45;;;15.00;99.90;;;;;;5051147;28;20087;-77
2022/06/19 03:44:40;;;;;;;17.40;2.92;;;15.00;99.90;;;;;;5050362;28;20076;-76
2022/06/19 03:47:06;;;;;;;14.35;2.70;;;14.80;99.90;;;;;;5049756;28;20087;-77
2022/06/19 03:49:32;;;;;;;15.45;2.25;;;14.70;99.90;;;;;;5050110;28;20051;-77
2022/06/19 03:51:58;;;;;;;14.55;3.03;;;14.60;99.90;;;;;;5049073;28;20066;-77
2022/06/19 03:54:23;;;;;;;13.48;2.00;;;14.50;99.90;;;;;;5049421;28;20119;-78
2022/06/19 03:56:49;;;;;;;19.88;2.40;;;14.40;99.90;;;;;;5047663;28;20029;-76
2022/06/19 03:59:14;;;;;;;13.60;2.17;;;14.30;99.90;;;;;;5049217;28;20041;-77
2022/06/19 04:01:40;;;;;;;10.60;2.03;;;14.20;99.90;;;;;;5049926;28;20487;-76
2022/06/19 04:04:08;;;;;;;12.27;2.30;;;14.20;99.90;;;;;;5049275;28;20049;-77
2022/06/19 04:06:37;;;;;;;16.38;2.70;;;14.20;99.90;;;;;;5049143;28;20052;-76
2022/06/19 04:09:05;;;;;;;15.48;2.58;;;14.10;99.90;;;;;;5049042;28;20037;-78
2022/06/19 04:11:31;;;;;;;15.40;2.60;;;14.10;99.90;;;;;;5049210;28;20037;-78
2022/06/19 04:13:57;;;;;;;13.75;2.50;;;14.10;99.90;;;;;;5046976;28;20033;-76
2022/06/19 04:16:26;;;;;;;13.55;2.88;;;14.10;99.90;;;;;;5048568;28;20494;-75
2022/06/19 04:18:54;;;;;;;15.70;2.80;;;14.10;99.90;;;;;;5042853;28;20107;-77
2022/06/19 04:21:23;;;;;;;13.02;2.53;;;14.10;99.90;;;;;;5051563;28;20031;-78
2022/06/19 04:23:53;;;;;;;17.73;2.60;;;14.00;99.90;;;;;;5053058;28;20033;-78
2022/06/19 04:26:19;;;;;;;17.80;2.67;;;14.00;99.90;;;;;;5054044;28;20487;-77
2022/06/19 04:28:45;;;;;;;21.42;3.00;;;13.90;99.90;;;;;;5053534;28;20032;-78
2022/06/19 04:31:10;;;;;;;16.75;2.45;;;13.90;99.90;;;;;;5050819;28;20060;-80
2022/06/19 04:33:39;;;;;;;11.32;2.40;;;13.80;99.90;;;;;;5052697;28;20425;-79
2022/06/19 04:36:13;;;;;;;17.15;2.65;;;13.80;99.90;;;;;;5050541;28;20059;-77
2022/06/19 04:38:40;;;;;;;15.98;2.58;;;13.70;99.90;;;;;;5051590;28;20064;-77
2022/06/19 04:41:16;;;;;;;12.98;2.10;;;13.70;99.90;;;;;;5053800;28;20032;-77
2022/06/19 04:43:42;;;;;;;10.88;2.00;;;13.70;99.90;;;;;;5050173;28;20029;-78
2022/06/19 04:46:08;;;;;;;12.13;2.28;;;13.60;99.90;;;;;;5053588;28;20037;-78
2022/06/19 04:48:34;;;;;;;11.00;1.80;;;13.50;99.90;;;;;;5053512;28;20521;-78
2022/06/19 04:51:00;;;;;;;11.90;2.03;;;13.30;99.90;;;;;;5053162;28;20044;-79
2022/06/19 04:53:26;;;;;;;10.77;2.17;;;13.40;99.90;;;;;;5053689;28;20041;-78
2022/06/19 04:55:52;;;;;;;12.57;1.85;;;13.40;99.90;;;;;;5052534;28;20067;-78
2022/06/19 04:58:22;;;;;;;9.25;2.03;;;13.40;99.90;;;;;;5053609;28;20048;-79
2022/06/19 05:00:52;;;;;;;10.82;2.72;;;13.40;99.90;;;;;;5053036;28;20048;-79
2022/06/19 05:03:22;;;;;;;9.88;1.83;;;13.40;99.90;;;;;;5052985;28;20029;-79
2022/06/19 05:05:49;;;;;;;8.35;1.70;;;13.40;99.90;;;;;;5050429;28;20033;-79
2022/06/19 05:08:15;;;;;;;9.30;1.65;;;13.40;99.90;;;;;;5053495;28;20044;-79
2022/06/19 05:10:41;;;;;;;11.57;1.77;;;13.40;99.90;;;;;;5053169;28;20041;-78
2022/06/19 05:13:15;;;;;;;10.18;1.90;;;13.40;99.90;;;;;;5051493;28;20071;-77
2022/06/19 05:15:41;;;;;;;10.00;2.53;;;13.50;99.90;;;;;;5051799;28;20072;-77
2022/06/19 05:18:07;;;;;;;10.77;1.77;;;13.50;99.90;;;;;;5052561;28;20067;-79
2022/06/19 05:20:32;;;;;;;11.32;2.10;;;13.50;99.90;;;;;;5052161;28;20079;-79
2022/06/19 05:22:58;;;;;;;9.43;1.95;;;13.50;99.90;;;;;;5051155;28;20041;-78
2022/06/19 05:25:23;;;;;;;8.85;1.80;;;13.50;99.90;;;;;;5052113;28;20091;-79
2022/06/19 05:27:49;;;;;;;11.18;2.40;;;13.50;99.90;;;;;;5052614;28;20107;-78
2022/06/19 05:30:14;;;;;;;10.60;2.30;;;13.40;99.90;;;;;;5052806;28;20109;-77
2022/06/19 05:32:40;;;;;;;7.40;1.90;;;13.50;99.90;;;;;;5051754;28;20029;-76
2022/06/19 05:35:06;;;;;;;9.60;2.05;;;13.40;99.90;;;;;;5050826;28;20573;-77
2022/06/19 05:37:32;;;;;;;8.55;2.10;;;13.40;99.90;;;;;;5048231;28;20033;-77
2022/06/19 05:39:58;;;;;;;8.98;1.67;;;13.30;99.90;;;;;;5051876;28;20120;-78
2022/06/19 05:42:24;;;;;;;12.02;2.13;;;13.40;99.90;;;;;;5051890;28;20040;-77
2022/06/19 05:44:49;;;;;;;9.63;1.90;;;13.40;99.90;;;;;;5049749;28;20151;-77
2022/06/19 05:47:16;;;;;;;10.88;1.70;;;13.30;99.90;;;;;;5050853;28;20043;-78
2022/06/19 05:49:41;;;;;;;12.27;1.98;;;13.30;99.90;;;;;;5053247;28;20112;-77
2022/06/19 05:52:19;;;;;;;7.32;1.55;;;13.40;99.90;;;;;;5049814;28;20147;-79
2022/06/19 05:54:46;;;;;;;9.88;1.67;;;13.40;99.90;;;;;;5050095;28;20033;-78
2022/06/19 05:57:12;;;;;;;11.73;2.13;;;13.50;99.90;;;;;;5052134;28;20033;-78
2022/06/19 05:59:37;;;;;;;11.75;1.83;;;13.50;99.90;;;;;;5051009;28;20029;-78
2022/06/19 06:02:04;;;;;;;12.65;2.30;;;13.50;99.90;;;;;;5051910;28;20568;-78
2022/06/19 06:04:29;;;;;;;11.38;2.05;;;13.50;99.90;;;;;;5051787;28;20049;-78
2022/06/19 06:06:55;;;;;;;9.63;2.30;;;13.40;99.90;;;;;;5048950;28;20086;-78
2022/06/19 06:09:20;;;;;;;13.57;2.70;;;13.40;99.90;;;;;;5052128;28;20507;-78
2022/06/19 06:11:46;;;;;;;14.50;2.20;;;13.10;99.90;;;;;;5049581;28;20212;-76
2022/06/19 06:14:12;;;;;;;13.90;2.17;;;13.10;99.90;;;;;;5048994;28;20048;-76
2022/06/19 06:16:37;;;;;;;12.10;1.98;;;13.20;99.90;;;;;;5050520;28;20076;-78
2022/06/19 06:19:03;;;;;;;14.63;2.67;;;13.20;99.90;;;;;;5050272;28;20511;-77
2022/06/19 06:21:28;;;;;;;13.02;2.30;;;13.20;99.90;;;;;;5050886;28;20433;-77
2022/06/19 06:23:54;;;;;;;14.77;2.53;;;13.20;99.90;;;;;;5049536;28;20036;-77
2022/06/19 06:26:23;;;;;;;10.95;1.80;;;13.20;99.90;;;;;;5049515;28;20087;-77
2022/06/19 06:28:50;;;;;;;13.80;2.28;;;13.30;99.90;;;;;;5052151;28;20043;-77
2022/06/19 06:31:17;;;;;;;16.40;2.30;;;13.30;99.90;;;;;;5049955;28;20033;-78
2022/06/19 06:33:43;;;;;;;15.13;2.97;;;13.40;99.90;;;;;;5049885;28;20063;-76
2022/06/19 06:36:09;;;;;;;13.02;2.38;;;13.40;99.90;;;;;;5050900;28;20061;-77
2022/06/19 06:38:35;;;;;;;11.85;2.00;;;13.50;99.90;;;;;;5047823;28;20402;-77
2022/06/19 06:41:03;;;;;;;13.98;2.10;;;13.50;99.90;;;;;;5033063;28;20075;-78
2022/06/19 06:43:29;;;;;;;10.15;1.80;;;13.60;99.90;;;;;;5048349;28;20047;-77
2022/06/19 06:46:02;;;;;;;13.70;2.38;;;13.60;99.90;;;;;;5049359;28;20037;-77
2022/06/19 06:48:27;;;;;;;10.55;2.08;;;13.70;99.90;;;;;;5051633;28;20127;-78
2022/06/19 06:50:53;;;;;;;11.60;2.05;;;13.70;99.90;;;;;;5049678;28;20120;-78
2022/06/19 06:53:18;;;;;;;9.93;2.10;;;13.80;99.90;;;;;;5050070;28;20469;-77
2022/06/19 06:55:44;;;;;;;15.45;2.28;;;13.80;99.90;;;;;;5038701;28;20594;-78
2022/06/19 06:58:11;;;;;;;11.77;1.88;;;13.90;99.90;;;;;;5050712;28;20033;-78
2022/06/19 07:00:37;;;;;;;14.43;1.88;;;13.90;99.90;;;;;;5049856;28;20120;-77
2022/06/19 07:03:03;;;;;;;20.70;2.85;;;13.90;99.90;;;;;;5047809;28;20451;-77
2022/06/19 07:05:29;;;;;;;12.65;1.77;;;14.00;99.90;;;;;;5050119;28;20127;-77
2022/06/19 07:07:56;;;;;;;12.88;2.10;;;14.10;99.90;;;;;;5049960;28;20557;-77
2022/06/19 07:10:21;;;;;;;12.38;1.80;;;14.20;99.90;;;;;;5049119;28;20545;-77
2022/06/19 07:12:48;;;;;;;12.55;1.85;;;14.20;99.90;;;;;;5051470;28;20084;-78
2022/06/19 07:15:15;;;;;;;13.23;2.25;;;14.10;99.90;;;;;;5048916;28;20431;-78
2022/06/19 07:17:40;;;;;;;14.82;2.42;;;14.00;99.90;;;;;;5050538;28;20060;-78
2022/06/19 07:20:07;;;;;;;17.10;2.10;;;14.00;99.90;;;;;;5050802;28;20481;-78
2022/06/19 07:22:33;;;;;;;11.55;1.90;;;14.10;99.90;;;;;;5042941;28;20048;-78
2022/06/19 07:24:58;;;;;;;11.60;2.00;;;14.20;99.90;;;;;;5049260;28;20075;-77
2022/06/19 07:27:24;;;;;;;16.10;2.22;;;14.20;99.90;;;;;;5049823;28;20491;-77
2022/06/19 07:29:50;;;;;;;11.93;2.33;;;14.30;99.90;;;;;;5046273;28;20052;-77
2022/06/19 07:32:16;;;;;;;9.05;1.95;;;14.40;99.90;;;;;;5043025;28;20048;-78
2022/06/19 07:34:42;;;;;;;12.35;1.90;;;14.40;99.90;;;;;;5050520;28;20091;-78
2022/06/19 07:37:11;;;;;;;13.80;2.00;;;14.30;99.90;;;;;;5049580;28;20037;-78
2022/06/19 07:39:37;;;;;;;8.52;1.90;;;14.30;99.90;;;;;;5049825;28;20087;-79
2022/06/19 07:42:05;;;;;;;10.95;1.98;;;14.20;99.90;;;;;;5049762;28;20576;-78
2022/06/19 07:44:31;;;;;;;13.48;2.20;;;14.20;99.90;;;;;;5047606;28;20124;-78
2022/06/19 07:52:25;;;;;;;14.95;2.03;;;14.30;99.90;;;;;;5044898;28;20084;-78
2022/06/19 07:54:50;;;;;;;14.63;2.00;;;14.30;99.90;;;;;;5047350;28;20439;-78
2022/06/19 07:57:16;;;;;;;11.40;2.08;;;14.20;99.90;;;;;;5048495;28;20095;-78
2022/06/19 07:59:41;;;;;;;8.52;1.70;;;14.20;99.90;;;;;;5048763;28;20086;-78
2022/06/19 08:02:07;;;;;;;15.25;2.33;;;14.20;99.90;;;;;;5050564;28;20061;-78
2022/06/19 08:04:33;;;;;;;10.88;1.90;;;14.20;99.90;;;;;;5049611;28;20067;-78
2022/06/19 08:06:58;;;;;;;14.27;2.67;;;14.20;99.90;;;;;;5050592;28;20036;-78
2022/06/19 08:09:24;;;;;;;11.15;2.78;;;14.10;99.90;;;;;;5049029;28;20045;-78
2022/06/19 08:11:49;;;;;;;10.38;1.77;;;14.10;99.90;;;;;;5049773;28;20523;-78
2022/06/19 08:14:15;;;;;;;9.30;2.47;;;14.10;99.90;;;;;;5046974;28;20211;-78
2022/06/19 08:16:40;;;;;;;13.77;2.10;;;14.10;99.90;;;;;;5050206;28;20033;-78
2022/06/19 08:19:06;;;;;;;11.55;2.05;;;14.10;99.90;;;;;;5051000;28;20028;-78
2022/06/19 08:21:32;;;;;;;8.10;1.83;;;14.10;99.90;;;;;;5050487;28;20036;-78
2022/06/19 08:23:57;;;;;;;10.40;1.90;;;14.10;99.90;;;;;;5050159;28;20029;-78
2022/06/19 08:26:23;;;;;;;9.90;1.77;;;14.20;99.90;;;;;;5047827;28;20044;-79
2022/06/19 08:29:00;;;;;;;14.52;2.63;;;14.20;99.90;;;;;;5051441;28;20564;-78
2022/06/19 08:31:27;;;;;;;9.35;1.88;;;14.20;99.90;;;;;;5047373;28;20494;-77
2022/06/19 08:33:53;;;;;;;9.88;1.98;;;14.30;99.90;;;;;;5047851;28;20064;-77
2022/06/19 08:36:19;;;;;;;12.32;1.80;;;14.40;99.90;;;;;;5048931;28;20063;-77
2022/06/19 08:38:49;;;;;;;7.57;1.65;;;14.40;99.90;;;;;;5043716;28;20040;-78
2022/06/19 08:41:29;;;;;;;9.13;1.60;;;14.50;99.90;;;;;;5045817;28;20036;-78
2022/06/19 08:44:14;;;;;;;10.93;1.88;;;14.60;99.90;;;;;;5042806;28;20086;-79
2022/06/19 08:47:08;;;;;;;10.57;1.70;;;14.80;99.90;;;;;;5052582;28;20051;-79
2022/06/19 08:49:51;;;;;;;7.50;1.50;;;14.80;99.90;;;;;;5053026;28;20079;-78
2022/06/19 08:52:32;;;;;;;11.20;1.60;;;14.90;99.90;;;;;;5052277;28;20044;-79
2022/06/19 08:55:32;;;;;;;9.20;1.55;;;14.90;99.90;;;;;;5047967;28;20037;-78
2022/06/19 08:58:34;;;;;;;9.95;1.50;;;14.90;99.90;;;;;;5048701;28;20124;-76
2022/06/19 09:01:20;;;;;;;7.78;1.63;;;14.90;99.90;;;;;;5050371;28;20029;-77
2022/06/19 09:07:27;;;;;;;10.98;1.95;;;14.80;99.90;;;;;;5049862;28;20045;-77
2022/06/19 09:10:35;;;;;;;9.00;1.80;;;15.00;99.90;;;;;;5048914;28;20042;-78
2022/06/19 09:13:13;;;;;;;6.97;1.60;;;15.10;99.90;;;;;;5037819;28;20396;-78
2022/06/19 09:15:50;;;;;;;6.88;1.77;;;15.20;99.90;;;;;;5050956;28;20241;-78
2022/06/19 09:18:28;;;;;;;6.32;1.80;;;15.10;99.90;;;;;;5043792;28;20069;-77
2022/06/19 09:21:08;;;;;;;6.28;1.35;;;15.20;99.90;;;;;;5048736;28;20077;-79
2022/06/19 09:24:09;;;;;;;8.73;1.60;;;15.20;99.90;;;;;;5050157;28;20041;-78
2022/06/19 09:26:43;;;;;;;5.05;1.08;;;15.10;99.90;;;;;;5032258;28;20044;-78
2022/06/19 09:29:35;;;;;;;;;;;15.00;99.90;;;;;;5051248;28;20055;-78
2022/06/19 09:32:13;;;;;;;8.20;1.48;;;15.00;99.90;;;;;;5044145;28;19925;-77
2022/06/19 09:34:58;;;;;;;6.60;1.20;;;15.00;99.90;;;;;;5047543;28;20037;-77
2022/06/19 09:38:08;;;;;;;3.65;1.23;;;15.00;99.90;;;;;;5032185;28;20074;-77
2022/06/19 09:40:38;;;;;;;8.88;1.33;;;15.00;99.90;;;;;;5047632;28;20045;-77
2022/06/19 09:43:24;;;;;;;5.47;1.10;;;15.10;99.90;;;;;;5052550;28;20048;-78
2022/06/19 09:46:02;;;;;;;5.10;1.40;;;15.10;99.90;;;;;;5050707;28;20045;-78
2022/06/19 09:49:02;;;;;;;5.35;1.30;;;15.20;99.90;;;;;;5050837;28;20041;-78
2022/06/19 09:51:27;;;;;;;6.50;1.38;;;15.20;99.90;;;;;;5048883;28;20041;-79
2022/06/19 09:54:10;;;;;;;6.47;1.45;;;15.20;99.90;;;;;;5049932;28;20135;-78
2022/06/19 09:56:46;;;;;;;7.93;1.17;;;15.30;99.90;;;;;;5052498;28;20549;-78
2022/06/19 09:59:31;;;;;;;7.47;1.38;;;15.40;99.90;;;;;;5039407;28;20055;-79
2022/06/19 10:02:05;;;;;;;8.13;1.38;;;15.40;99.90;;;;;;5053049;28;20041;-78
2022/06/19 10:04:36;;;;;;;4.20;1.10;;;15.60;99.90;;;;;;5051300;28;20411;-78
2022/06/19 10:07:09;;;;;;;9.20;1.30;;;15.50;99.90;;;;;;5048361;28;20495;-79
2022/06/19 10:09:42;;;;;;;5.72;1.65;;;15.50;99.90;;;;;;5047497;28;20044;-78
2022/06/19 10:12:14;;;;;;;6.50;1.50;;;15.60;99.90;;;;;;5047170;28;20033;-79
2022/06/19 10:14:47;;;;;;;7.65;1.10;;;15.70;99.90;;;;;;5047820;28;20426;-78
2022/06/19 10:17:54;;;;;;;5.25;1.20;;;15.70;99.90;;;;;;5051705;28;20405;-82
2022/06/19 10:20:43;;;;;;;3.95;1.10;;;16.00;99.90;;;;;;5052598;28;20029;-78
2022/06/19 10:23:47;;;;;;;4.28;1.00;;;15.80;99.90;;;;;;5045228;28;20045;-81
2022/06/19 10:26:51;;;;;;;6.40;1.30;;;15.80;99.90;;;;;;5048368;28;20060;-78
2022/06/19 10:29:34;;;;;;;5.40;0.82;;;15.90;99.90;;;;;;4984150;28;20058;-79
2022/06/19 10:32:23;;;;;;;7.05;1.23;;;15.90;99.90;;;;;;4989970;28;20052;-78
2022/06/19 10:35:00;;;;;;;4.70;1.15;;;16.00;99.90;;;;;;5027563;28;20076;-79
2022/06/19 10:37:37;;;;;;;6.57;1.38;;;16.10;99.90;;;;;;5052102;28;20053;-79
2022/06/19 10:40:09;;;;;;;5.28;1.05;;;16.20;99.90;;;;;;5037358;28;20485;-78
2022/06/19 10:42:55;;;;;;;5.18;1.10;;;16.30;99.90;;;;;;5051381;28;20036;-80
2022/06/19 10:45:21;;;;;;;5.72;1.00;;;16.40;99.90;;;;;;5038830;28;20064;-82
2022/06/19 10:48:08;;;;;;;4.20;0.95;;;16.30;99.90;;;;;;5051510;28;20145;-80
2022/06/19 10:51:04;;;;;;;4.57;0.85;;;16.50;99.90;;;;;;5040779;28;20049;-79
2022/06/19 10:53:56;;;;;;;4.35;0.95;;;16.80;99.90;;;;;;5051685;28;20045;-79
2022/06/19 10:56:56;;;;;;;2.90;1.10;;;17.00;99.90;;;;;;5052363;28;20112;-81
2022/06/19 10:59:23;;;;;;;5.18;1.00;;;17.00;99.90;;;;;;5049669;28;20049;-78
2022/06/19 11:04:56;;;;;;;3.35;0.95;;;17.60;99.90;;;;;;5051507;28;20045;-80
2022/06/19 11:07:25;;;;;;;4.35;1.00;;;18.00;99.90;;;;;;5051714;28;20048;-79
2022/06/19 11:10:03;;;;;;;2.63;0.65;;;18.20;99.90;;;;;;5051504;28;20081;-79
2022/06/19 11:12:37;;;;;;;2.47;0.60;;;17.90;99.90;;;;;;5051203;28;20491;-77
2022/06/19 11:15:28;;;;;;;5.25;1.00;;;18.00;99.90;;;;;;5051268;28;20112;-78
2022/06/19 11:18:22;;;;;;;2.17;0.88;;;17.90;99.90;;;;;;5043025;28;20128;-79
2022/06/19 11:21:03;;;;;;;1.90;0.70;;;17.50;99.90;;;;;;5049303;28;20052;-78
2022/06/19 11:23:38;;;;;;;2.13;0.90;;;17.40;99.90;;;;;;5049838;28;20037;-78
2022/06/19 11:26:16;;;;;;;2.03;0.80;;;17.40;99.90;;;;;;5051022;28;20045;-79
2022/06/19 11:29:01;;;;;;;1.88;0.70;;;17.20;99.90;;;;;;5051035;28;20717;-79
2022/06/19 11:31:33;;;;;;;4.32;1.00;;;16.90;99.90;;;;;;5050378;28;20090;-79
2022/06/19 11:34:43;;;;;;;3.70;1.10;;;16.40;99.90;;;;;;5051162;28;20047;-79
2022/06/19 11:36:49;;;;;;;3.08;0.90;;;16.20;99.90;;;;;;5051638;28;20048;-79
2022/06/19 11:39:38;;;;;;;3.08;0.98;;;15.90;99.90;;;;;;5045766;28;20041;-79
2022/06/19 11:42:24;;;;;;;5.53;1.10;;;15.80;99.90;;;;;;5046946;28;20127;-79
2022/06/19 11:45:12;;;;;;;3.75;0.65;;;15.90;99.90;;;;;;5045212;28;20041;-79
2022/06/19 11:47:47;;;;;;;4.63;0.98;;;15.90;99.90;;;;;;5046113;28;20044;-79
2022/06/19 11:50:21;;;;;;;5.13;1.08;;;15.90;99.90;;;;;;5048252;28;20045;-79
2022/06/19 11:52:46;;;;;;;5.40;1.05;;;15.60;99.90;;;;;;5048694;28;20045;-79
2022/06/19 11:55:27;;;;;;;5.00;1.15;;;15.60;99.90;;;;;;5029861;28;20046;-80
2022/06/19 11:57:59;;;;;;;5.45;0.95;;;15.60;99.90;;;;;;5031704;28;20041;-79
2022/06/19 12:00:31;;;;;;;6.47;1.40;;;15.50;99.90;;;;;;5038437;28;20048;-79
2022/06/19 12:03:03;;;;;;;4.75;1.17;;;15.70;99.90;;;;;;5052222;28;20037;-79
2022/06/19 12:05:42;;;;;;;3.88;1.20;;;15.60;99.90;;;;;;5049247;28;20411;-79
2022/06/19 12:08:21;;;;;;;5.30;1.20;;;15.50;99.90;;;;;;5049522;28;20033;-78
2022/06/19 12:10:53;;;;;;;4.78;1.20;;;15.50;99.90;;;;;;5050212;28;20060;-78
2022/06/19 12:13:37;;;;;;;3.03;1.08;;;15.70;99.90;;;;;;5050266;28;20044;-78
2022/06/19 12:16:10;;;;;;;6.63;1.38;;;15.70;99.90;;;;;;5048754;28;20037;-78
2022/06/19 12:18:36;;;;;;;7.32;1.50;;;15.70;99.90;;;;;;5049464;28;20045;-80
2022/06/19 12:21:16;;;;;;;2.72;1.10;;;15.70;99.90;;;;;;5049182;28;20036;-79
2022/06/19 12:23:58;;;;;;;5.45;1.27;;;15.80;99.90;;;;;;5046413;28;20036;-79
2022/06/19 12:26:44;;;;;;;8.55;1.40;;;16.10;99.90;;;;;;5049311;28;20037;-78
2022/06/19 12:29:34;;;;;;;4.03;1.20;;;16.50;99.90;;;;;;5048049;28;20167;-82
2022/06/19 12:32:21;;;;;;;3.35;1.25;;;16.80;99.90;;;;;;5041401;28;20433;-80
2022/06/19 12:34:50;;;;;;;4.65;1.20;;;17.00;99.90;;;;;;5046710;28;20045;-78
2022/06/19 12:37:20;;;;;;;4.80;1.42;;;17.30;99.90;;;;;;5049927;28;20086;-80
2022/06/19 12:39:46;;;;;;;5.53;1.30;;;17.60;99.90;;;;;;5048281;28;20048;-80
2022/06/19 12:42:23;;;;;;;6.55;1.42;;;17.50;99.90;;;;;;5052509;28;20037;-80
2022/06/19 12:45:04;;;;;;;6.55;1.40;;;17.60;99.90;;;;;;5051876;28;20045;-79
2022/06/19 12:47:51;;;;;;;6.45;1.30;;;17.50;99.90;;;;;;5050939;28;20045;-81
2022/06/19 12:50:50;;;;;;;5.15;1.23;;;17.20;99.90;;;;;;5048628;28;20037;-80
2022/06/19 12:53:37;;;;;;;5.50;1.30;;;17.20;99.90;;;;;;5048549;28;20033;-78
2022/06/19 12:56:24;;;;;;;7.32;1.50;;;17.30;99.90;;;;;;5047590;28;20040;-79
2022/06/19 12:59:21;;;;;;;5.22;1.17;;;17.20;99.90;;;;;;5048031;28;20037;-78
2022/06/19 13:02:01;;;;;;;6.65;1.33;;;17.40;99.90;;;;;;5049070;28;20124;-78
2022/06/19 13:04:42;;;;;;;5.20;1.35;;;17.60;99.90;;;;;;5048179;28;20040;-77
2022/06/19 13:07:36;;;;;;;4.85;1.23;;;17.70;99.90;;;;;;5050740;28;20047;-79
2022/06/19 13:10:20;;;;;;;4.40;0.95;;;17.80;99.90;;;;;;5048182;28;20040;-80
2022/06/19 13:13:05;;;;;;;;;;;17.70;99.90;;;;;;5051717;28;20044;-79
2022/06/19 13:15:57;;;;;;;4.60;1.10;;;17.70;99.90;;;;;;5053678;28;19982;-79
2022/06/19 13:19:03;;;;;;;4.28;1.10;;;17.70;99.90;;;;;;5047323;28;20052;-78
2022/06/19 13:22:06;;;;;;;7.97;1.00;;;17.70;99.90;;;;;;5051694;28;20052;-80
2022/06/19 13:24:47;;;;;;;2.97;1.00;;;18.10;99.90;;;;;;5052415;28;20045;-81